createdAt,value
2018-04-28T00:00:15.628Z,100173.48
2018-04-28T00:02:44.235Z,100177.07
2018-04-28T00:05:12.817Z,100185.70
2018-04-28T00:07:41.397Z,100183.11
2018-04-28T00:10:09.952Z,100181.88
2018-04-28T00:12:38.552Z,100189.94
2018-04-28T00:15:07.133Z,100185.29
2018-04-28T00:17:35.668Z,100192.55
2018-04-28T00:20:04.257Z,100191.73
2018-04-28T00:22:35.641Z,100194.88
2018-04-28T00:28:35.692Z,100192.27
2018-04-28T00:31:17.084Z,100200.22
2018-04-28T00:33:46.316Z,100199.81
2018-04-28T00:36:14.857Z,100191.88
2018-04-28T00:38:47.072Z,100202.42
2018-04-28T00:41:15.609Z,100205.58
2018-04-28T00:43:44.144Z,100199.69
2018-04-28T00:46:23.496Z,100214.51
2018-04-28T00:49:13.620Z,100211.07
2018-04-28T00:51:42.171Z,100208.18
2018-04-28T00:54:17.325Z,100207.78
2018-04-28T00:56:57.464Z,100207.90
2018-04-28T00:59:29.673Z,100205.72
2018-04-28T01:01:59.776Z,100205.98
2018-04-28T01:04:42.051Z,100204.48
2018-04-28T01:07:18.540Z,100203.09
2018-04-28T01:09:58.437Z,100206.27
2018-04-28T01:12:27.765Z,100202.44
2018-04-28T01:15:17.068Z,100197.49
2018-04-28T01:17:52.188Z,100206.53
2018-04-28T01:23:18.031Z,100197.06
2018-04-28T01:25:47.449Z,100196.23
2018-04-28T01:31:28.741Z,100197.35
2018-04-28T01:34:04.796Z,100202.14
2018-04-28T01:36:37.108Z,100201.31
2018-04-28T01:39:08.548Z,100206.83
2018-04-28T01:42:00.724Z,100206.41
2018-04-28T01:44:34.964Z,100202.69
2018-04-28T01:47:10.180Z,100207.09
2018-04-28T01:49:45.581Z,100204.36
2018-04-28T01:52:14.940Z,100199.96
2018-04-28T01:54:50.220Z,100202.71
2018-04-28T02:00:13.880Z,100207.64
2018-04-28T02:02:50.095Z,100207.09
2018-04-28T02:05:22.311Z,100211.89
2018-04-28T02:07:50.884Z,100207.09
2018-04-28T02:13:27.275Z,100207.37
2018-04-28T02:15:55.840Z,100209.01
2018-04-28T02:18:36.338Z,100204.48
2018-04-28T02:27:17.728Z,100207.65
2018-04-28T02:29:52.917Z,100214.23
2018-04-28T02:32:21.478Z,100206.67
2018-04-28T02:37:57.544Z,100201.06
2018-04-28T02:43:26.462Z,100211.78
2018-04-28T02:46:00.974Z,100215.61
2018-04-28T02:48:34.333Z,100216.70
2018-04-28T02:51:04.388Z,100212.45
2018-04-28T02:53:44.127Z,100216.98
2018-04-28T02:56:15.169Z,100208.20
2018-04-28T02:58:55.292Z,100216.58
2018-04-28T03:01:30.663Z,100217.25
2018-04-28T03:03:59.268Z,100221.37
2018-04-28T03:06:44.423Z,100224.39
2018-04-28T03:09:13.041Z,100225.77
2018-04-28T03:11:44.136Z,100225.61
2018-04-28T03:14:15.789Z,100230.70
2018-04-28T03:16:45.992Z,100240.98
2018-04-28T03:19:14.252Z,100244.41
2018-04-28T03:21:48.126Z,100241.95
2018-04-28T03:27:15.283Z,100254.44
2018-04-28T03:29:49.286Z,100257.58
2018-04-28T03:32:17.498Z,100256.61
2018-04-28T03:34:46.522Z,100264.02
2018-04-28T03:37:22.156Z,100264.02
2018-04-28T03:40:12.156Z,100264.02
2018-04-28T03:42:57.929Z,100266.35
2018-04-28T03:48:30.884Z,100275.02
2018-04-28T03:51:19.743Z,100278.03
2018-04-28T03:56:59.285Z,100284.20
2018-04-28T03:59:39.349Z,100281.72
2018-04-28T04:02:19.599Z,100287.92
2018-04-28T04:04:54.808Z,100282.98
2018-04-28T04:07:44.725Z,100292.02
2018-04-28T04:10:13.827Z,100290.51
2018-04-28T04:12:46.066Z,100290.94
2018-04-28T04:15:23.277Z,100283.52
2018-04-28T04:24:13.180Z,100312.89
2018-04-28T04:26:56.296Z,100310.12
2018-04-28T04:32:28.526Z,100309.30
2018-04-28T04:35:20.308Z,100321.93
2018-04-28T04:37:55.276Z,100322.50
2018-04-28T04:43:40.252Z,100328.09
2018-04-28T04:49:26.991Z,100331.53
2018-04-28T04:55:13.641Z,100340.31
2018-04-28T05:01:09.555Z,100340.69
2018-04-28T05:03:43.471Z,100336.86
2018-04-28T05:06:26.387Z,100336.97
2018-04-28T05:08:56.029Z,100346.33
2018-04-28T05:14:31.097Z,100347.69
2018-04-28T05:20:18.082Z,100349.17
2018-04-28T05:22:49.331Z,100354.80
2018-04-28T05:25:29.308Z,100356.81
2018-04-28T05:28:00.183Z,100362.70
2018-04-28T05:33:53.494Z,100365.74
2018-04-28T05:39:49.417Z,100361.69
2018-04-28T05:45:34.337Z,100369.16
2018-04-28T05:48:14.372Z,100363.94
2018-04-28T05:51:04.463Z,100379.65
2018-04-28T05:56:57.513Z,100379.27
2018-04-28T05:59:36.432Z,100379.14
2018-04-28T06:05:26.024Z,100386.11
2018-04-28T06:08:03.047Z,100391.85
2018-04-28T06:10:32.247Z,100387.25
2018-04-28T06:13:06.459Z,100392.78
2018-04-28T06:15:38.924Z,100387.41
2018-04-28T06:21:13.061Z,100398.27
2018-04-28T06:23:41.272Z,100397.30
2018-04-28T06:26:09.457Z,100383.34
2018-04-28T06:28:37.729Z,100391.73
2018-04-28T06:31:05.973Z,100390.20
2018-04-28T06:33:34.153Z,100391.48
2018-04-28T06:36:02.373Z,100387.83
2018-04-28T06:38:30.796Z,100391.53
2018-04-28T06:40:59.004Z,100399.64
2018-04-28T06:43:27.173Z,100392.03
2018-04-28T06:45:55.623Z,100396.17
2018-04-28T06:48:23.897Z,100389.11
2018-04-28T06:50:52.171Z,100398.66
2018-04-28T06:53:20.362Z,100376.80
2018-04-28T06:55:48.723Z,100391.89
2018-04-28T06:58:16.946Z,100399.74
2018-04-28T07:00:45.172Z,100397.27
2018-04-28T07:03:13.381Z,100403.09
2018-04-28T07:05:41.628Z,100401.62
2018-04-28T07:08:09.837Z,100404.98
2018-04-28T07:10:38.084Z,100402.69
2018-04-28T07:13:06.306Z,100406.13
2018-04-28T07:15:34.626Z,100410.92
2018-04-28T07:18:02.874Z,100406.67
2018-04-28T07:20:31.105Z,100414.30
2018-04-28T07:22:59.365Z,100404.94
2018-04-28T07:25:27.590Z,100411.03
2018-04-28T07:27:55.798Z,100421.02
2018-04-28T07:30:24.065Z,100417.09
2018-04-28T07:32:52.325Z,100399.30
2018-04-28T07:35:20.625Z,100412.54
2018-04-28T07:37:48.809Z,100418.36
2018-04-28T07:40:17.045Z,100414.02
2018-04-28T07:42:45.340Z,100423.08
2018-04-28T07:45:13.549Z,100418.28
2018-04-28T07:47:41.863Z,100422.57
2018-04-28T07:50:10.049Z,100421.05
2018-04-28T07:52:38.261Z,100424.69
2018-04-28T07:55:06.443Z,100415.96
2018-04-28T07:57:34.647Z,100417.70
2018-04-28T08:00:02.801Z,100416.22
2018-04-28T08:02:31.047Z,100412.64
2018-04-28T08:04:59.265Z,100416.84
2018-04-28T08:07:27.524Z,100419.49
2018-04-28T08:09:55.728Z,100425.66
2018-04-28T08:12:23.977Z,100409.78
2018-04-28T08:14:52.182Z,100417.59
2018-04-28T08:17:20.417Z,100418.11
2018-04-28T08:19:48.673Z,100424.62
2018-04-28T08:22:16.926Z,100415.25
2018-04-28T08:24:45.192Z,100418.19
2018-04-28T08:27:13.412Z,100429.73
2018-04-28T08:29:41.676Z,100428.79
2018-04-28T08:32:09.868Z,100431.81
2018-04-28T08:34:38.077Z,100427.72
2018-04-28T08:37:06.359Z,100436.45
2018-04-28T08:39:34.608Z,100424.73
2018-04-28T08:42:02.865Z,100417.77
2018-04-28T08:44:31.093Z,100422.37
2018-04-28T08:46:59.300Z,100418.48
2018-04-28T08:49:27.500Z,100419.95
2018-04-28T08:51:55.696Z,100412.20
2018-04-28T08:54:23.947Z,100410.26
2018-04-28T08:56:52.176Z,100402.25
2018-04-28T08:59:20.408Z,100408.06
2018-04-28T09:01:48.628Z,100407.52
2018-04-28T09:04:16.821Z,100396.98
2018-04-28T09:06:45.832Z,100401.75
2018-04-28T09:09:14.037Z,100389.06
2018-04-28T09:11:42.493Z,100401.98
2018-04-28T09:14:11.008Z,100398.75
2018-04-28T09:16:39.479Z,100394.01
2018-04-28T09:19:07.938Z,100383.75
2018-04-28T09:21:36.428Z,100389.63
2018-04-28T09:24:05.308Z,100389.76
2018-04-28T09:26:33.814Z,100391.50
2018-04-28T09:29:02.260Z,100388.36
2018-04-28T09:31:30.774Z,100393.38
2018-04-28T09:33:59.250Z,100384.12
2018-04-28T09:36:27.714Z,100386.13
2018-04-28T09:38:56.246Z,100375.50
2018-04-28T09:41:24.746Z,100371.68
2018-04-28T09:43:53.241Z,100370.47
2018-04-28T09:46:21.755Z,100366.08
2018-04-28T09:48:50.236Z,100362.11
2018-04-28T09:51:18.701Z,100357.79
2018-04-28T09:53:47.206Z,100355.83
2018-04-28T09:56:15.686Z,100343.37
2018-04-28T09:58:44.188Z,100351.16
2018-04-28T10:01:18.121Z,100347.19
2018-04-28T10:03:46.686Z,100333.38
2018-04-28T10:06:15.214Z,100335.27
2018-04-28T10:08:43.706Z,100330.70
2018-04-28T10:11:12.198Z,100331.86
2018-04-28T10:13:40.676Z,100331.23
2018-04-28T10:16:09.199Z,100335.91
2018-04-28T10:18:38.081Z,100331.48
2018-04-28T10:21:06.549Z,100335.21
2018-04-28T10:23:35.032Z,100322.94
2018-04-28T10:26:03.510Z,100317.09
2018-04-28T10:28:32.000Z,100311.94
2018-04-28T10:31:00.492Z,100303.97
2018-04-28T10:33:28.949Z,100307.39
2018-04-28T10:35:57.412Z,100305.78
2018-04-28T10:38:25.869Z,100301.39
2018-04-28T10:40:54.332Z,100294.32
2018-04-28T10:43:22.820Z,100297.22
2018-04-28T10:45:51.283Z,100289.45
2018-04-28T10:48:19.788Z,100284.92
2018-04-28T10:50:48.240Z,100285.59
2018-04-28T10:53:16.713Z,100275.66
2018-04-28T10:55:45.219Z,100285.82
2018-04-28T10:58:13.673Z,100288.03
2018-04-28T11:00:42.214Z,100271.14
2018-04-28T11:03:10.676Z,100264.10
2018-04-28T11:05:39.225Z,100257.08
2018-04-28T11:08:07.658Z,100255.94
2018-04-28T11:10:36.164Z,100256.92
2018-04-28T11:13:04.620Z,100261.02
2018-04-28T11:15:33.085Z,100257.70
2018-04-28T11:18:01.582Z,100254.24
2018-04-28T11:20:30.049Z,100253.26
2018-04-28T11:22:58.528Z,100241.18
2018-04-28T11:25:27.029Z,100244.13
2018-04-28T11:27:55.558Z,100236.70
2018-04-28T11:30:24.031Z,100236.60
2018-04-28T11:32:52.545Z,100239.64
2018-04-28T11:35:21.034Z,100230.80
2018-04-28T11:37:49.493Z,100226.48
2018-04-28T11:40:18.004Z,100228.94
2018-04-28T11:42:46.642Z,100215.03
2018-04-28T11:45:15.131Z,100212.17
2018-04-28T11:47:43.628Z,100208.11
2018-04-28T11:50:12.098Z,100201.14
2018-04-28T11:52:40.593Z,100203.41
2018-04-28T11:55:09.044Z,100203.70
2018-04-28T11:57:37.539Z,100191.47
2018-04-28T12:00:06.057Z,100187.55
2018-04-28T12:02:34.614Z,100180.99
2018-04-28T12:05:03.165Z,100183.56
2018-04-28T12:07:31.713Z,100178.72
2018-04-28T12:10:00.225Z,100164.68
2018-04-28T12:12:28.744Z,100166.14
2018-04-28T12:14:57.361Z,100157.55
2018-04-28T12:17:25.849Z,100160.48
2018-04-28T12:19:54.356Z,100150.25
2018-04-28T12:22:22.845Z,100148.38
2018-04-28T12:24:51.297Z,100144.01
2018-04-28T12:27:19.805Z,100138.16
2018-04-28T12:29:48.279Z,100138.05
2018-04-28T12:32:16.805Z,100129.97
2018-04-28T12:34:45.260Z,100137.31
2018-04-28T12:37:13.757Z,100124.31
2018-04-28T12:39:42.246Z,100117.70
2018-04-28T12:42:10.736Z,100110.97
2018-04-28T12:44:39.224Z,100109.16
2018-04-28T12:47:07.686Z,100108.36
2018-04-28T12:49:36.175Z,100109.77
2018-04-28T12:52:04.644Z,100107.92
2018-04-28T12:54:33.104Z,100099.72
2018-04-28T12:57:01.595Z,100111.72
2018-04-28T12:59:30.075Z,100103.20
2018-04-28T13:01:58.525Z,100109.97
2018-04-28T13:04:27.017Z,100101.37
2018-04-28T13:06:55.497Z,100101.37
2018-04-28T13:09:23.956Z,100097.66
2018-04-28T13:11:52.449Z,100088.95
2018-04-28T13:14:20.940Z,100082.24
2018-04-28T13:16:49.429Z,100083.16
2018-04-28T13:19:17.928Z,100087.71
2018-04-28T13:21:46.391Z,100088.19
2018-04-28T13:24:14.885Z,100084.65
2018-04-28T13:26:43.349Z,100081.81
2018-04-28T13:29:11.923Z,100074.09
2018-04-28T13:31:40.348Z,100069.98
2018-04-28T13:34:08.812Z,100067.74
2018-04-28T13:36:37.321Z,100061.14
2018-04-28T13:39:05.817Z,100054.65
2018-04-28T13:41:34.285Z,100052.46
2018-04-28T13:44:02.796Z,100046.87
2018-04-28T13:46:31.303Z,100052.50
2018-04-28T13:48:59.759Z,100035.27
2018-04-28T13:51:28.262Z,100042.44
2018-04-28T13:53:56.740Z,100041.13
2018-04-28T13:56:25.263Z,100026.52
2018-04-28T13:58:53.762Z,100044.23
2018-04-28T14:01:22.261Z,100045.18
2018-04-28T14:03:50.797Z,100046.80
2018-04-28T14:06:19.277Z,100039.15
2018-04-28T14:08:47.832Z,100042.44
2018-04-28T14:11:16.281Z,100035.20
2018-04-28T14:13:44.784Z,100035.16
2018-04-28T14:16:13.254Z,100028.50
2018-04-28T14:18:41.765Z,100032.95
2018-04-28T14:21:10.242Z,100023.45
2018-04-28T14:23:38.717Z,100024.07
2018-04-28T14:26:07.220Z,100033.52
2018-04-28T14:28:35.692Z,100025.90
2018-04-28T14:31:04.148Z,100017.16
2018-04-28T14:33:32.633Z,100016.68
2018-04-28T14:36:01.120Z,100018.80
2018-04-28T14:38:29.580Z,100006.69
2018-04-28T14:40:58.081Z,100004.38
2018-04-28T14:43:26.545Z,100003.62
2018-04-28T14:45:55.033Z,100001.75
2018-04-28T14:48:23.480Z,99998.31
2018-04-28T14:50:51.964Z,100007.83
2018-04-28T14:53:20.460Z,99990.88
2018-04-28T14:55:48.944Z,100002.55
2018-04-28T14:58:17.447Z,99993.45
2018-04-28T15:00:45.908Z,99997.83
2018-04-28T15:03:14.396Z,99986.50
2018-04-28T15:05:42.870Z,99996.00
2018-04-28T15:08:11.373Z,99995.72
2018-04-28T15:10:39.818Z,99994.00
2018-04-28T15:13:08.309Z,99991.95
2018-04-28T15:15:36.826Z,99986.57
2018-04-28T15:18:05.303Z,99987.23
2018-04-28T15:20:33.793Z,99989.09
2018-04-28T15:23:02.288Z,99984.52
2018-04-28T15:25:30.738Z,99986.77
2018-04-28T15:27:59.233Z,99984.80
2018-04-28T15:30:27.732Z,99980.93
2018-04-28T15:32:56.180Z,99979.47
2018-04-28T15:35:24.680Z,99979.55
2018-04-28T15:37:53.196Z,99975.00
2018-04-28T15:40:21.660Z,99981.22
2018-04-28T15:42:50.137Z,99971.37
2018-04-28T15:45:18.599Z,99969.89
2018-04-28T15:47:47.048Z,99968.80
2018-04-28T15:50:15.536Z,99960.67
2018-04-28T15:52:44.036Z,99958.30
2018-04-28T15:55:12.615Z,99963.98
2018-04-28T15:57:41.044Z,99951.89
2018-04-28T16:00:09.548Z,99936.41
2018-04-28T16:02:38.066Z,99940.02
2018-04-28T16:05:06.516Z,99941.33
2018-04-28T16:07:34.972Z,99945.03
2018-04-28T16:10:03.482Z,99942.67
2018-04-28T16:12:31.966Z,99948.45
2018-04-28T16:15:00.462Z,99952.77
2018-04-28T16:17:28.929Z,99957.70
2018-04-28T16:19:57.389Z,99956.67
2018-04-28T16:22:25.877Z,99959.80
2018-04-28T16:24:54.356Z,99952.97
2018-04-28T16:27:22.879Z,99956.64
2018-04-28T16:29:51.369Z,99954.46
2018-04-28T16:32:19.824Z,99965.09
2018-04-28T16:34:48.328Z,99964.84
2018-04-28T16:37:16.808Z,99967.53
2018-04-28T16:39:45.259Z,99965.84
2018-04-28T16:42:13.759Z,99961.99
2018-04-28T16:44:42.214Z,99970.14
2018-04-28T16:47:10.701Z,99968.19
2018-04-28T16:49:39.216Z,99954.12
2018-04-28T16:52:07.681Z,99973.43
2018-04-28T16:54:36.160Z,99979.07
2018-04-28T16:57:04.621Z,99973.77
2018-04-28T16:59:33.117Z,99986.82
2018-04-28T17:02:01.590Z,99990.80
2018-04-28T17:04:30.105Z,99993.09
2018-04-28T17:06:58.601Z,99999.63
2018-04-28T17:09:27.127Z,100004.17
2018-04-28T17:11:55.611Z,100007.19
2018-04-28T17:14:24.113Z,100006.34
2018-04-28T17:16:52.674Z,99998.08
2018-04-28T17:19:21.146Z,100012.02
2018-04-28T17:21:49.616Z,100011.56
2018-04-28T17:24:18.127Z,100019.33
2018-04-28T17:26:46.645Z,100027.14
2018-04-28T17:29:15.109Z,100025.01
2018-04-28T17:31:43.597Z,100031.39
2018-04-28T17:34:12.085Z,100027.58
2018-04-28T17:36:40.521Z,100040.78
2018-04-28T17:39:09.058Z,100045.91
2018-04-28T17:41:37.533Z,100047.51
2018-04-28T17:44:06.028Z,100041.11
2018-04-28T17:46:34.541Z,100050.25
2018-04-28T17:49:03.145Z,100057.20
2018-04-28T17:51:31.616Z,100058.59
2018-04-28T17:54:00.093Z,100064.89
2018-04-28T17:56:28.600Z,100072.00
2018-04-28T17:58:57.114Z,100072.80
2018-04-28T18:01:25.616Z,100083.09
2018-04-28T18:03:54.097Z,100090.86
2018-04-28T18:06:22.557Z,100078.50
2018-04-28T18:08:51.017Z,100092.79
2018-04-28T18:11:19.516Z,100101.90
2018-04-28T18:13:47.992Z,100099.95
2018-04-28T18:16:16.468Z,100094.08
2018-04-28T18:18:44.933Z,100099.16
2018-04-28T18:21:13.431Z,100096.47
2018-04-28T18:23:41.934Z,100106.41
2018-04-28T18:26:10.490Z,100096.37
2018-04-28T18:28:38.928Z,100098.50
2018-04-28T18:31:07.385Z,100118.80
2018-04-28T18:33:35.892Z,100106.83
2018-04-28T18:36:05.066Z,100112.48
2018-04-28T18:38:33.574Z,100130.06
2018-04-28T18:41:02.039Z,100133.11
2018-04-28T18:43:30.532Z,100136.32
2018-04-28T18:45:59.052Z,100151.22
2018-04-28T18:48:27.562Z,100159.41
2018-04-28T18:50:56.016Z,100162.41
2018-04-28T18:53:24.533Z,100156.47
2018-04-28T18:55:53.036Z,100167.64
2018-04-28T18:58:21.532Z,100166.33
2018-04-28T19:00:49.991Z,100174.12
2018-04-28T19:03:18.500Z,100177.69
2018-04-28T19:05:47.020Z,100174.81
2018-04-28T19:08:15.477Z,100176.56
2018-04-28T19:10:43.970Z,100181.95
2018-04-28T19:13:12.439Z,100180.55
2018-04-28T19:15:40.928Z,100180.18
2018-04-28T19:18:09.385Z,100180.63
2018-04-28T19:20:37.881Z,100181.61
2018-04-28T19:23:06.339Z,100186.30
2018-04-28T19:25:34.818Z,100178.41
2018-04-28T19:28:03.312Z,100187.12
2018-04-28T19:30:31.767Z,100182.59
2018-04-28T19:33:00.220Z,100175.53
2018-04-28T19:35:28.714Z,100183.55
2018-04-28T19:37:57.206Z,100182.25
2018-04-28T19:40:25.708Z,100176.64
2018-04-28T19:42:54.188Z,100184.52
2018-04-28T19:45:22.696Z,100183.75
2018-04-28T19:47:51.167Z,100185.52
2018-04-28T19:50:19.630Z,100178.71
2018-04-28T19:52:48.152Z,100178.34
2018-04-28T19:55:16.616Z,100174.27
2018-04-28T19:57:45.081Z,100179.34
2018-04-28T20:00:14.325Z,100176.33
2018-04-28T20:02:42.843Z,100177.42
2018-04-28T20:05:11.317Z,100181.96
2018-04-28T20:07:39.820Z,100183.98
2018-04-28T20:10:08.350Z,100180.29
2018-04-28T20:12:36.864Z,100182.30
2018-04-28T20:15:05.363Z,100187.16
2018-04-28T20:17:33.899Z,100188.81
2018-04-28T20:20:02.409Z,100190.88
2018-04-28T20:22:42.514Z,100180.51
2018-04-28T20:25:24.671Z,100196.05
2018-04-28T20:27:53.140Z,100197.84
2018-04-28T20:30:21.688Z,100191.96
2018-04-28T20:32:50.188Z,100190.22
2018-04-28T20:35:18.653Z,100189.74
2018-04-28T20:37:47.176Z,100179.00
2018-04-28T20:40:15.639Z,100194.36
2018-04-28T20:42:44.097Z,100194.36
2018-04-28T20:45:12.578Z,100190.84
2018-04-28T20:47:41.060Z,100197.69
2018-04-28T20:50:09.553Z,100194.55
2018-04-28T20:52:38.044Z,100194.84
2018-04-28T20:55:06.525Z,100194.03
2018-04-28T20:57:34.988Z,100201.34
2018-04-28T21:00:03.524Z,100199.86
2018-04-28T21:02:31.948Z,100198.12
2018-04-28T21:05:00.497Z,100203.19
2018-04-28T21:07:28.992Z,100200.88
2018-04-28T21:09:57.443Z,100204.55
2018-04-28T21:12:25.932Z,100199.08
2018-04-28T21:14:54.512Z,100195.80
2018-04-28T21:17:23.008Z,100207.88
2018-04-28T21:19:51.460Z,100211.17
2018-04-28T21:22:19.956Z,100212.28
2018-04-28T21:24:48.408Z,100201.89
2018-04-28T21:27:16.865Z,100211.48
2018-04-28T21:29:45.351Z,100213.55
2018-04-28T21:32:13.857Z,100217.81
2018-04-28T21:34:42.317Z,100216.98
2018-04-28T21:37:10.804Z,100211.91
2018-04-28T21:39:39.267Z,100214.80
2018-04-28T21:42:07.759Z,100214.27
2018-04-28T21:44:36.251Z,100211.62
2018-04-28T21:47:04.724Z,100217.38
2018-04-28T21:49:33.224Z,100215.59
2018-04-28T21:52:01.727Z,100215.17
2018-04-28T21:54:30.188Z,100210.52
2018-04-28T21:56:58.676Z,100207.08
2018-04-28T21:59:27.190Z,100209.00
2018-04-28T22:01:55.652Z,100217.78
2018-04-28T22:04:24.101Z,100209.28
2018-04-28T22:06:52.612Z,100205.70
2018-04-28T22:09:21.172Z,100210.08
2018-04-28T22:11:49.676Z,100224.34
2018-04-28T22:14:18.139Z,100221.72
2018-04-28T22:16:46.636Z,100228.98
2018-04-28T22:19:15.124Z,100229.12
2018-04-28T22:21:43.576Z,100225.98
2018-04-28T22:24:12.080Z,100228.84
2018-04-28T22:26:40.545Z,100231.03
2018-04-28T22:29:08.995Z,100233.63
2018-04-28T22:31:38.232Z,100231.73
2018-04-28T22:34:06.684Z,100230.36
2018-04-28T22:36:35.176Z,100233.22
2018-04-28T22:39:03.684Z,100230.73
2018-04-28T22:41:32.228Z,100233.30
2018-04-28T22:44:00.676Z,100231.55
2018-04-28T22:46:29.179Z,100235.11
2018-04-28T22:48:57.675Z,100238.78
2018-04-28T22:51:26.132Z,100237.55
2018-04-28T22:53:54.660Z,100228.16
2018-04-28T22:56:23.112Z,100240.67
2018-04-28T22:58:51.622Z,100244.66
2018-04-28T23:01:20.099Z,100242.59
2018-04-28T23:03:48.565Z,100239.04
2018-04-28T23:06:17.065Z,100234.27
2018-04-28T23:08:45.579Z,100233.59
2018-04-28T23:11:14.076Z,100226.08
2018-04-28T23:13:42.542Z,100230.04
2018-04-28T23:16:11.004Z,100223.05
2018-04-28T23:18:39.493Z,100219.08
2018-04-28T23:21:07.992Z,100215.93
2018-04-28T23:23:36.488Z,100217.97
2018-04-28T23:26:04.940Z,100217.67
2018-04-28T23:28:33.433Z,100210.27
2018-04-28T23:31:01.881Z,100209.72
2018-04-28T23:33:30.414Z,100206.98
2018-04-28T23:35:58.916Z,100213.09
2018-04-28T23:38:27.377Z,100210.35
2018-04-28T23:40:55.866Z,100212.39
2018-04-28T23:43:24.361Z,100213.64
2018-04-28T23:45:52.858Z,100209.09
2018-04-28T23:48:21.318Z,100206.76
2018-04-28T23:50:49.812Z,100209.50
2018-04-28T23:53:18.443Z,100205.53
2018-04-28T23:55:46.892Z,100201.98
2018-04-28T23:58:15.390Z,100200.06
